Bergamot Ace — ZGAS5 — position and weather

sailwx.info

Track history (hours):
 
Tides and Currents Weather Stations Pressure Air Temp Water Temp Dewpoint Dewpoint Depression Visibility Wind Speed Wind Dir Waves Ship Positions

Bergamot Ace

Last reported at 2017-Mar-13 12:23 UTC. Time now 2017-Mar-24 06:17 UTC.
Position N 01°15' E 104°05'.
Warning: this ship's position is 10 days out of date.

Length 186 m; draft 7.9 m.

Type: Cargo ship. MMSI: 319740000.

Date/timePositionNaut miles runAvg speedWind from/ knotsBaromVisibWave heightAir tempDewpointWater temp
2017-Mar-13 12:23N 01°15' E 104°05'1113.2
2017-Mar-13 11:33N 01°13' E 103°54'8 8.3
2017-Mar-13 10:33N 01°15' E 103°46'2 2.1
2017-Mar-13 09:32N 01°17' E 103°45'0 0.0
2017-Mar-13 08:32N 01°17' E 103°45'0 0.0
2017-Mar-13 07:14N 01°17' E 103°45'0 0.0
2017-Mar-13 06:32N 01°17' E 103°45'0 0.0
2017-Mar-13 05:32N 01°17' E 103°45'0 0.0
2017-Mar-13 04:32N 01°17' E 103°45'0 0.0
2017-Mar-13 03:32N 01°17' E 103°45'0 0.0
2017-Mar-13 02:26N 01°17' E 103°45'0 0.0
2017-Mar-13 01:32N 01°17' E 103°45'0 0.0
2017-Mar-13 00:26N 01°17' E 103°45'0 0.1
2017-Mar-12 23:33N 01°17' E 103°45'7 7.2
2017-Mar-12 22:33N 01°13' E 103°51'4 3.0
2017-Mar-12 21:23N 01°16' E 103°51'0 0.0
2017-Mar-12 20:26N 01°16' E 103°51'0 0.0
2017-Mar-12 19:20N 01°16' E 103°51'0 0.0
2017-Mar-12 18:32N 01°16' E 103°51'0 0.0
2017-Mar-12 17:32N 01°16' E 103°51'0 0.0
2017-Mar-12 16:32N 01°16' E 103°51'0 0.0
2017-Mar-12 15:14N 01°16' E 103°51'1 1.2
2017-Mar-12 14:34N 01°15' E 103°51'2 1.9
2017-Mar-12 13:30N 01°16' E 103°53'0 0.0
2017-Mar-12 12:33N 01°16' E 103°53'0 0.0
2017-Mar-12 11:33N 01°16' E 103°53'0 0.0
2017-Mar-12 10:33N 01°16' E 103°53'0 0.1
2017-Mar-12 09:30N 01°16' E 103°53'0 0.0
2017-Mar-12 08:33N 01°16' E 103°53'0 0.0
2017-Mar-12 07:33N 01°16' E 103°53'0 0.0
2017-Mar-12 06:30N 01°16' E 103°53'0 0.0
2017-Mar-12 05:33N 01°16' E 103°53'0 0.0
2017-Mar-12 04:33N 01°16' E 103°53'0 0.1
2017-Mar-12 03:33N 01°16' E 103°53'0 0.0
2017-Mar-12 02:33N 01°16' E 103°53'0 0.0
2017-Mar-12 01:33N 01°16' E 103°53'1 0.5
2017-Mar-12 00:33N 01°15' E 103°53'2 2.1
2017-Mar-11 23:33N 01°14' E 103°55'8 7.6
2017-Mar-11 22:33N 01°16' E 104°02'  
Track history (hours):
 
Tides and Currents Weather Stations Pressure Air Temp Water Temp Dewpoint Dewpoint Depression Visibility Wind Speed Wind Dir Waves Ship Positions

Bergamot Ace

Last reported at 2017-Mar-13 12:23 UTC. Time now 2017-Mar-24 06:17 UTC.
Position N 01°15' E 104°05'.
Warning: this ship's position is 10 days out of date.

Length 186 m; draft 7.9 m.

Type: Cargo ship. MMSI: 319740000.

Date/timePositionNaut miles runAvg speedWind from/ knotsBaromVisibWave heightAir tempDewpointWater temp
2017-Mar-13 12:23N 01°15' E 104°05'1113.2
2017-Mar-13 11:33N 01°13' E 103°54'8 8.3
2017-Mar-13 10:33N 01°15' E 103°46'2 2.1
2017-Mar-13 09:32N 01°17' E 103°45'0 0.0
2017-Mar-13 08:32N 01°17' E 103°45'0 0.0
2017-Mar-13 07:14N 01°17' E 103°45'0 0.0
2017-Mar-13 06:32N 01°17' E 103°45'0 0.0
2017-Mar-13 05:32N 01°17' E 103°45'0 0.0
2017-Mar-13 04:32N 01°17' E 103°45'0 0.0
2017-Mar-13 03:32N 01°17' E 103°45'0 0.0
2017-Mar-13 02:26N 01°17' E 103°45'0 0.0
2017-Mar-13 01:32N 01°17' E 103°45'0 0.0
2017-Mar-13 00:26N 01°17' E 103°45'0 0.1
2017-Mar-12 23:33N 01°17' E 103°45'7 7.2
2017-Mar-12 22:33N 01°13' E 103°51'4 3.0
2017-Mar-12 21:23N 01°16' E 103°51'0 0.0
2017-Mar-12 20:26N 01°16' E 103°51'0 0.0
2017-Mar-12 19:20N 01°16' E 103°51'0 0.0
2017-Mar-12 18:32N 01°16' E 103°51'0 0.0
2017-Mar-12 17:32N 01°16' E 103°51'0 0.0
2017-Mar-12 16:32N 01°16' E 103°51'0 0.0
2017-Mar-12 15:14N 01°16' E 103°51'1 1.2
2017-Mar-12 14:34N 01°15' E 103°51'2 1.9
2017-Mar-12 13:30N 01°16' E 103°53'0 0.0
2017-Mar-12 12:33N 01°16' E 103°53'0 0.0
2017-Mar-12 11:33N 01°16' E 103°53'0 0.0
2017-Mar-12 10:33N 01°16' E 103°53'0 0.1
2017-Mar-12 09:30N 01°16' E 103°53'0 0.0
2017-Mar-12 08:33N 01°16' E 103°53'0 0.0
2017-Mar-12 07:33N 01°16' E 103°53'0 0.0
2017-Mar-12 06:30N 01°16' E 103°53'0 0.0
2017-Mar-12 05:33N 01°16' E 103°53'0 0.0
2017-Mar-12 04:33N 01°16' E 103°53'0 0.1
2017-Mar-12 03:33N 01°16' E 103°53'0 0.0
2017-Mar-12 02:33N 01°16' E 103°53'0 0.0
2017-Mar-12 01:33N 01°16' E 103°53'1 0.5
2017-Mar-12 00:33N 01°15' E 103°53'2 2.1
2017-Mar-11 23:33N 01°14' E 103°55'8 7.6
2017-Mar-11 22:33N 01°16' E 104°02'  

Dump ship's entire track history